Time;durP1;ratioP1;P1;durP2;ratioP2;P2;SDS_P1;SDS_P2;PMS_P1;PMS_P2;Temp;Humidity;BMP_temperature;BMP_pressure;BME280_temperature;BME280_humidity;BME280_pressure;Samples;Min_cycle;Max_cycle;Signal;HPM_P1;HPM_P2
2024/04/01 00:01:40;;;;;;;0.20;0.17;;;;;;;31.12;27.47;97394.75;7394246;19;20015;-59
2024/04/01 00:04:06;;;;;;;0.80;0.80;;;;;;;29.79;28.81;97395.78;7395613;19;20015;-59
2024/04/01 00:06:32;;;;;;;0.85;0.40;;;;;;;29.54;29.01;97396.38;7393589;19;20011;-59
2024/04/01 00:08:58;;;;;;;2.28;0.43;;;;;;;29.77;28.42;97387.13;7395911;19;20486;-59
2024/04/01 00:11:24;;;;;;;0.30;0.30;;;;;;;30.19;28.21;97387.72;7395584;19;20086;-59
2024/04/01 00:13:51;;;;;;;1.15;0.93;;;;;;;30.26;27.93;97375.72;7395677;19;20010;-59
2024/04/01 00:16:17;;;;;;;0.40;0.40;;;;;;;29.70;28.54;97371.81;7395227;19;20011;-59
2024/04/01 00:18:43;;;;;;;0.50;0.32;;;;;;;29.29;29.03;97365.41;7391685;19;20022;-59
2024/04/01 00:21:09;;;;;;;0.47;0.35;;;;;;;29.39;28.87;97363.63;7390860;19;20010;-58
2024/04/01 00:23:36;;;;;;;2.35;0.75;;;;;;;29.48;28.69;97359.63;7392161;19;20026;-58
2024/04/01 00:26:03;;;;;;;0.43;0.43;;;;;;;29.47;28.95;97358.16;7394068;19;20019;-58
2024/04/01 00:28:29;;;;;;;0.45;0.45;;;;;;;29.42;28.94;97350.81;7392176;19;20015;-58
2024/04/01 00:30:55;;;;;;;0.52;0.52;;;;;;;29.41;28.75;97348.63;7391598;19;20010;-59
2024/04/01 00:33:21;;;;;;;0.85;0.50;;;;;;;29.40;28.63;97342.16;7391088;19;20017;-59
2024/04/01 00:35:47;;;;;;;1.60;0.40;;;;;;;29.49;28.82;97343.16;7389763;19;20457;-59
2024/04/01 00:38:13;;;;;;;2.42;0.73;;;;;;;29.42;28.98;97333.63;7391059;19;20015;-59
2024/04/01 00:40:39;;;;;;;0.98;0.60;;;;;;;29.30;28.63;97333.22;7390228;19;20062;-59
2024/04/01 00:43:07;;;;;;;0.40;0.40;;;;;;;29.41;28.92;97337.16;7391242;19;20006;-59
2024/04/01 00:45:39;;;;;;;0.38;0.32;;;;;;;29.49;29.01;97338.16;7390642;19;20007;-59
2024/04/01 00:48:07;;;;;;;0.47;0.47;;;;;;;29.47;28.53;97335.22;7394967;19;20003;-59
2024/04/01 00:50:36;;;;;;;3.28;1.25;;;;;;;29.70;28.68;97333.78;7391110;19;20026;-58
2024/04/01 00:53:04;;;;;;;0.35;0.22;;;;;;;29.41;29.05;97325.69;7390766;19;20748;-59
2024/04/01 00:55:32;;;;;;;1.52;0.60;;;;;;;29.28;29.16;97327.44;7392123;19;20014;-59
2024/04/01 00:58:00;;;;;;;1.20;0.70;;;;;;;29.40;28.61;97316.34;7391103;19;20466;-59
2024/04/01 01:00:27;;;;;;;0.40;0.40;;;;;;;29.11;29.44;97316.78;7395432;19;20017;-59
2024/04/01 01:02:53;;;;;;;0.60;0.60;;;;;;;29.30;28.96;97318.88;7398124;19;20013;-59
2024/04/01 01:05:21;;;;;;;0.25;0.25;;;;;;;29.33;28.77;97326.16;7397889;19;20486;-59
2024/04/01 01:07:48;;;;;;;1.10;0.63;;;;;;;29.22;29.37;97322.22;7397911;19;20015;-59
2024/04/01 01:10:15;;;;;;;1.10;0.73;;;;;;;28.51;29.70;97321.84;7397163;19;20011;-59
2024/04/01 01:12:41;;;;;;;1.30;0.70;;;;;;;28.87;29.80;97325.28;7401095;19;20007;-59
2024/04/01 01:15:10;;;;;;;1.13;0.47;;;;;;;29.34;29.34;97321.16;7396933;19;20074;-59
2024/04/01 01:17:37;;;;;;;1.50;0.95;;;;;;;29.48;29.06;97315.84;7397253;19;20473;-59
2024/04/01 01:20:03;;;;;;;0.68;0.68;;;;;;;29.39;29.17;97314.88;7397172;19;20014;-59
2024/04/01 01:22:36;;;;;;;0.38;0.35;;;;;;;29.60;29.10;97308.41;7398853;19;20010;-59
2024/04/01 01:25:06;;;;;;;0.65;0.47;;;;;;;30.18;28.54;97300.84;7396237;19;20025;-59
2024/04/01 01:27:34;;;;;;;1.07;0.67;;;;;;;29.39;29.41;97306.25;7398116;19;20021;-59
2024/04/01 01:30:03;;;;;;;0.20;0.20;;;;;;;29.46;29.23;97299.31;7395193;19;20007;-59
2024/04/01 01:32:32;;;;;;;0.20;0.20;;;;;;;29.42;29.06;97293.47;7396496;19;20042;-58
2024/04/01 01:34:58;;;;;;;0.63;0.35;;;;;;;29.58;28.83;97288.25;7396525;19;20010;-59
2024/04/01 01:37:25;;;;;;;0.40;0.40;;;;;;;29.61;28.94;97281.16;7396929;19;20015;-59
2024/04/01 01:39:51;;;;;;;0.40;0.40;;;;;;;29.81;28.84;97284.69;7396745;19;20066;-59
2024/04/01 01:42:17;;;;;;;1.45;0.93;;;;;;;29.61;29.07;97277.53;7396622;19;20015;-58
2024/04/01 01:44:43;;;;;;;0.28;0.28;;;;;;;29.41;29.21;97280.50;7395939;19;20813;-58
2024/04/01 01:47:09;;;;;;;0.70;0.38;;;;;;;29.67;28.97;97281.34;7396932;19;20042;-59
2024/04/01 01:49:35;;;;;;;0.20;0.20;;;;;;;29.66;28.98;97282.75;7395211;19;20093;-59
2024/04/01 01:52:01;;;;;;;1.60;0.70;;;;;;;29.60;28.61;97273.97;7395518;19;20007;-60
2024/04/01 01:54:27;;;;;;;0.80;0.77;;;;;;;29.49;29.02;97263.56;7395332;19;20014;-59
2024/04/01 01:56:53;;;;;;;0.35;0.35;;;;;;;30.25;28.21;97275.91;7398356;19;20348;-59
2024/04/01 01:59:19;;;;;;;0.47;0.43;;;;;;;29.54;28.88;97282.34;7393720;19;20034;-59
2024/04/01 02:01:45;;;;;;;1.13;0.47;;;;;;;29.31;29.33;97285.94;7396203;19;20471;-60
2024/04/01 02:04:12;;;;;;;0.30;0.30;;;;;;;29.38;29.42;97284.72;7395593;19;20050;-59
2024/04/01 02:06:38;;;;;;;0.50;0.35;;;;;;;29.23;29.24;97282.81;7395797;19;20014;-58
2024/04/01 02:09:04;;;;;;;1.08;0.85;;;;;;;28.98;29.36;97277.63;7395918;19;20011;-61
2024/04/01 02:11:30;;;;;;;0.57;0.30;;;;;;;29.22;29.47;97269.88;7394640;19;20080;-60
2024/04/01 02:13:56;;;;;;;1.35;0.65;;;;;;;29.16;29.71;97272.53;7395330;19;20034;-59
2024/04/01 02:16:22;;;;;;;2.13;1.20;;;;;;;29.26;29.58;97272.16;7396233;19;20021;-59
2024/04/01 02:18:48;;;;;;;1.65;0.68;;;;;;;28.93;30.00;97265.34;7395405;19;20014;-60
2024/04/01 02:21:18;;;;;;;2.50;0.85;;;;;;;28.95;29.99;97259.66;7396049;19;20014;-59
2024/04/01 02:23:45;;;;;;;1.08;0.98;;;;;;;28.99;29.66;97261.91;7395373;19;20462;-58
2024/04/01 02:26:11;;;;;;;7.85;0.90;;;;;;;29.18;29.47;97261.88;7397277;19;20014;-58
2024/04/01 02:28:37;;;;;;;3.35;0.90;;;;;;;29.14;29.54;97269.59;7394368;19;20058;-58
2024/04/01 02:31:03;;;;;;;1.38;0.63;;;;;;;29.17;29.66;97268.28;7397238;19;20331;-58
2024/04/01 02:33:29;;;;;;;0.63;0.35;;;;;;;28.96;29.59;97266.84;7394795;19;20014;-58
2024/04/01 02:35:55;;;;;;;0.90;0.90;;;;;;;28.76;30.25;97274.03;7395095;19;20094;-58
2024/04/01 02:38:21;;;;;;;5.63;1.23;;;;;;;28.51;30.28;97270.31;7395459;19;20034;-58
2024/04/01 02:40:47;;;;;;;1.65;0.90;;;;;;;28.51;30.08;97270.31;7397721;19;20010;-58
2024/04/01 02:43:14;;;;;;;2.35;1.33;;;;;;;28.59;30.12;97269.16;7395083;19;20011;-59
2024/04/01 02:45:40;;;;;;;3.15;0.85;;;;;;;28.64;29.97;97265.75;7393987;19;20018;-59
2024/04/01 02:48:07;;;;;;;2.17;1.23;;;;;;;28.60;30.54;97270.59;7395062;19;20027;-59
2024/04/01 02:50:36;;;;;;;1.60;1.27;;;;;;;28.77;30.02;97264.78;7396399;19;20014;-58
2024/04/01 02:53:02;;;;;;;2.63;1.35;;;;;;;28.89;29.98;97281.66;7394515;19;20083;-58
2024/04/01 02:55:28;;;;;;;2.75;0.75;;;;;;;29.02;30.00;97272.06;7395725;19;20015;-59
2024/04/01 02:57:54;;;;;;;2.25;1.27;;;;;;;28.97;30.51;97274.06;7392908;19;20014;-58
2024/04/01 03:00:22;;;;;;;2.17;1.02;;;;;;;29.05;30.44;97276.44;7396452;19;20022;-58
2024/04/01 03:02:48;;;;;;;2.10;0.55;;;;;;;29.05;30.18;97279.31;7393840;19;20475;-58
2024/04/01 03:05:15;;;;;;;2.28;0.68;;;;;;;28.98;30.18;97286.97;7393818;19;20034;-58
2024/04/01 03:07:42;;;;;;;3.33;0.73;;;;;;;28.78;30.38;97285.56;7393912;19;20018;-58
2024/04/01 03:10:11;;;;;;;2.85;1.00;;;;;;;28.71;30.35;97298.22;7392573;19;20366;-58
2024/04/01 03:12:41;;;;;;;0.60;0.60;;;;;;;28.65;30.78;97295.13;7397035;19;20031;-58
2024/04/01 03:15:08;;;;;;;0.35;0.35;;;;;;;28.64;30.36;97287.94;7393792;19;20013;-58
2024/04/01 03:17:35;;;;;;;3.60;2.45;;;;;;;28.66;30.62;97294.47;7393060;19;20010;-58
2024/04/01 03:20:01;;;;;;;8.43;1.63;;;;;;;28.56;30.93;97287.63;7393504;19;20102;-58
2024/04/01 03:22:28;;;;;;;9.57;1.23;;;;;;;28.23;30.80;97280.75;7392156;19;20015;-58
2024/04/01 03:24:54;;;;;;;2.78;1.52;;;;;;;29.22;30.13;97292.81;7396342;19;20474;-58
2024/04/01 03:27:22;;;;;;;3.08;0.98;;;;;;;30.22;29.56;97289.47;7397768;19;20013;-58
2024/04/01 03:29:48;;;;;;;4.50;0.40;;;;;;;30.31;28.51;97278.97;7390485;19;20441;-58
2024/04/01 03:32:14;;;;;;;1.50;1.00;;;;;;;30.26;28.90;97286.72;7393426;19;20369;-58
2024/04/01 03:34:40;;;;;;;2.28;0.70;;;;;;;29.69;29.43;97287.13;7393567;19;20010;-58
2024/04/01 03:37:07;;;;;;;0.80;0.80;;;;;;;29.29;30.02;97288.75;7393129;19;20039;-58
2024/04/01 03:39:33;;;;;;;3.10;1.05;;;;;;;29.00;29.94;97281.31;7396261;19;20361;-58
2024/04/01 03:41:59;;;;;;;2.20;0.70;;;;;;;29.67;29.86;97284.19;7390342;19;20013;-58
2024/04/01 03:44:25;;;;;;;2.13;1.35;;;;;;;30.32;28.80;97277.56;7392057;19;20744;-58
2024/04/01 03:46:51;;;;;;;0.88;0.85;;;;;;;30.68;28.64;97275.69;7391922;19;20070;-58
2024/04/01 03:49:18;;;;;;;3.47;1.30;;;;;;;30.67;29.13;97277.09;7391518;19;20083;-59
2024/04/01 03:51:44;;;;;;;0.32;0.32;;;;;;;30.54;29.11;97283.91;7391416;19;20416;-59
2024/04/01 03:54:10;;;;;;;1.05;0.80;;;;;;;30.05;29.49;97281.78;7393048;19;20474;-59
2024/04/01 03:56:37;;;;;;;1.20;1.10;;;;;;;28.96;30.60;97284.03;7396097;19;20037;-59
2024/04/01 03:59:03;;;;;;;0.85;0.50;;;;;;;28.86;30.62;97285.84;7392601;19;20035;-58
2024/04/01 04:01:31;;;;;;;2.15;1.27;;;;;;;29.14;30.38;97281.06;7396327;19;20013;-59
2024/04/01 04:03:57;;;;;;;0.85;0.52;;;;;;;28.18;31.05;97289.81;7396482;19;20019;-58
2024/04/01 04:06:23;;;;;;;3.03;0.55;;;;;;;28.46;30.63;97285.13;7395586;19;20031;-58
2024/04/01 04:08:49;;;;;;;1.85;0.85;;;;;;;28.42;30.93;97285.72;7390118;19;20488;-59
2024/04/01 04:11:15;;;;;;;1.38;0.93;;;;;;;28.01;30.94;97285.63;7392333;19;20011;-59
2024/04/01 04:13:42;;;;;;;2.15;0.93;;;;;;;27.65;31.87;97281.38;7392388;19;20021;-59
2024/04/01 04:16:08;;;;;;;1.17;0.88;;;;;;;27.51;31.53;97295.09;7395959;19;20026;-58
2024/04/01 04:18:34;;;;;;;2.67;1.38;;;;;;;27.54;32.09;97288.09;7393491;19;20025;-58
2024/04/01 04:21:00;;;;;;;1.67;1.08;;;;;;;28.18;31.34;97289.81;7391418;19;20058;-58
2024/04/01 04:23:27;;;;;;;2.10;0.98;;;;;;;28.04;31.41;97298.63;7392359;19;20015;-59
2024/04/01 04:25:53;;;;;;;1.08;0.47;;;;;;;28.03;31.80;97294.28;7394676;19;20010;-58
2024/04/01 04:28:20;;;;;;;1.17;0.65;;;;;;;28.63;30.87;97297.94;7391750;19;20101;-59
2024/04/01 04:30:46;;;;;;;0.40;0.40;;;;;;;28.05;31.67;97288.66;7389606;19;20011;-59
2024/04/01 04:33:12;;;;;;;2.28;1.13;;;;;;;28.04;31.55;97295.78;7390743;19;20351;-59
2024/04/01 04:35:38;;;;;;;1.48;0.70;;;;;;;28.24;31.28;97293.66;7400336;19;20058;-59
2024/04/01 04:38:04;;;;;;;1.50;0.80;;;;;;;27.88;31.80;97303.72;7398367;19;20011;-59
2024/04/01 04:40:32;;;;;;;0.63;0.63;;;;;;;27.90;31.98;97300.94;7399158;19;20034;-58
2024/04/01 04:42:58;;;;;;;1.58;0.45;;;;;;;28.06;31.49;97304.44;7397814;19;20010;-58
2024/04/01 04:45:24;;;;;;;0.90;0.68;;;;;;;28.19;31.44;97303.50;7399013;19;20018;-58
2024/04/01 04:47:51;;;;;;;5.78;1.70;;;;;;;28.23;31.16;97300.78;7398211;19;20332;-58
2024/04/01 04:50:18;;;;;;;0.65;0.65;;;;;;;28.28;31.46;97296.69;7396153;19;20006;-58
2024/04/01 04:52:44;;;;;;;0.60;0.60;;;;;;;28.82;31.24;97291.44;7399504;19;20038;-59
2024/04/01 04:55:10;;;;;;;2.88;1.35;;;;;;;28.92;30.59;97288.91;7399324;19;20034;-59
2024/04/01 04:57:37;;;;;;;5.43;1.13;;;;;;;28.95;30.79;97301.91;7398159;19;20485;-58
2024/04/01 05:00:20;;;;;;;0.20;0.20;;;;;;;28.92;30.85;97297.50;7396339;19;20010;-58
2024/04/01 05:02:47;;;;;;;1.35;0.98;;;;;;;28.66;30.93;97290.84;7398435;19;20522;-58
2024/04/01 05:05:15;;;;;;;3.22;0.55;;;;;;;28.41;30.95;97289.97;7400716;19;20427;-58
2024/04/01 05:07:44;;;;;;;1.05;0.82;;;;;;;28.35;31.40;97292.63;7398754;19;20332;-58
2024/04/01 05:10:14;;;;;;;0.95;0.65;;;;;;;28.53;31.23;97287.56;7395874;19;20006;-58
2024/04/01 05:12:41;;;;;;;0.93;0.47;;;;;;;28.39;31.14;97292.75;7400674;19;20030;-58
2024/04/01 05:15:07;;;;;;;0.47;0.47;;;;;;;28.54;30.84;97291.88;7398999;19;20010;-58
2024/04/01 05:17:33;;;;;;;5.60;0.73;;;;;;;28.38;31.16;97302.03;7398388;19;20007;-58
2024/04/01 05:19:59;;;;;;;3.25;0.60;;;;;;;28.44;31.04;97300.13;7396991;19;20463;-58
2024/04/01 05:22:26;;;;;;;1.85;0.80;;;;;;;28.47;31.24;97310.25;7397986;19;20171;-58
2024/04/01 05:24:53;;;;;;;0.60;0.60;;;;;;;28.50;30.90;97306.06;7395349;19;20028;-58
2024/04/01 05:27:21;;;;;;;1.83;0.20;;;;;;;28.28;31.05;97315.97;7396917;19;20510;-58
2024/04/01 05:30:02;;;;;;;10.15;1.42;;;;;;;28.63;30.66;97320.84;7399080;19;20759;-58
2024/04/01 05:32:30;;;;;;;0.65;0.40;;;;;;;28.54;31.39;97320.50;7397760;19;20455;-58
2024/04/01 05:34:57;;;;;;;0.22;0.22;;;;;;;28.67;31.16;97326.72;7396794;19;20473;-58
2024/04/01 05:37:24;;;;;;;0.98;0.57;;;;;;;29.05;30.35;97336.63;7396976;19;20019;-58
2024/04/01 05:39:53;;;;;;;0.20;0.20;;;;;;;29.17;30.33;97331.34;7396518;19;20340;-58
2024/04/01 05:42:20;;;;;;;1.85;0.40;;;;;;;28.62;30.61;97325.09;7397580;19;20214;-58
2024/04/01 05:44:47;;;;;;;0.20;0.20;;;;;;;28.03;31.30;97331.50;7397250;19;20350;-58
2024/04/01 05:47:14;;;;;;;1.27;0.90;;;;;;;28.41;31.38;97323.63;7392665;19;20014;-58
2024/04/01 05:49:41;;;;;;;1.50;1.25;;;;;;;29.31;30.60;97319.59;7395420;19;20011;-58
2024/04/01 05:52:07;;;;;;;1.20;0.35;;;;;;;29.70;29.91;97323.03;7397131;19;20014;-58
2024/04/01 05:54:33;;;;;;;1.48;1.38;;;;;;;29.12;30.41;97335.44;7395941;19;20011;-58
2024/04/01 05:57:00;;;;;;;0.52;0.50;;;;;;;28.62;31.23;97343.03;7400977;19;20014;-58
2024/04/01 05:59:27;;;;;;;0.93;0.43;;;;;;;28.13;31.18;97339.75;7395730;19;20085;-58
2024/04/01 06:01:57;;;;;;;1.90;1.17;;;;;;;28.07;31.66;97343.09;7395117;19;20011;-58
2024/04/01 06:04:25;;;;;;;1.00;0.40;;;;;;;28.27;31.54;97346.72;7395697;19;20066;-58
2024/04/01 06:06:51;;;;;;;0.43;0.43;;;;;;;28.17;31.51;97348.47;7394926;19;20011;-58
2024/04/01 06:09:18;;;;;;;2.20;1.20;;;;;;;28.50;30.95;97340.41;7394428;19;20007;-58
2024/04/01 06:11:45;;;;;;;7.07;0.52;;;;;;;28.87;30.88;97347.50;7396940;19;20017;-58
2024/04/01 06:14:11;;;;;;;0.73;0.43;;;;;;;28.81;30.71;97342.25;7396771;19;20011;-58
2024/04/01 06:16:38;;;;;;;1.45;0.50;;;;;;;28.87;30.97;97338.91;7396626;19;20451;-58
2024/04/01 06:19:05;;;;;;;4.13;0.40;;;;;;;29.05;30.57;97348.09;7395685;19;20014;-58
2024/04/01 06:21:32;;;;;;;10.40;0.90;;;;;;;29.04;30.52;97347.38;7399666;19;20094;-59
2024/04/01 06:23:59;;;;;;;3.58;1.27;;;;;;;28.96;30.94;97352.09;7395738;19;20596;-58
2024/04/01 06:26:26;;;;;;;0.70;0.70;;;;;;;28.87;30.65;97353.22;7397329;19;20106;-58
2024/04/01 06:28:52;;;;;;;1.25;0.45;;;;;;;29.40;30.58;97350.75;7393781;19;20017;-58
2024/04/01 06:31:19;;;;;;;1.33;0.90;;;;;;;29.72;29.93;97351.78;7398147;19;20097;-58
2024/04/01 06:33:45;;;;;;;0.57;0.57;;;;;;;30.18;29.38;97351.78;7392432;19;20639;-58
2024/04/01 06:36:11;;;;;;;6.80;0.50;;;;;;;30.19;29.32;97350.41;7395311;19;20006;-59
2024/04/01 06:38:38;;;;;;;0.70;0.70;;;;;;;30.51;29.20;97337.00;7393936;19;20011;-58
2024/04/01 06:41:04;;;;;;;5.65;0.82;;;;;;;30.58;29.35;97358.75;7394337;19;20015;-58
2024/04/01 06:43:30;;;;;;;2.40;0.88;;;;;;;30.32;29.32;97355.13;7390699;19;20074;-58
2024/04/01 06:45:58;;;;;;;1.42;0.50;;;;;;;30.30;29.57;97350.00;7391214;19;20152;-59
2024/04/01 06:48:25;;;;;;;1.08;0.40;;;;;;;29.81;29.82;97350.69;7393240;19;20355;-59
2024/04/01 06:50:52;;;;;;;11.13;3.97;;;;;;;29.61;30.21;97352.88;7393064;19;20011;-58
2024/04/01 06:53:19;;;;;;;1.23;1.02;;;;;;;29.67;30.28;97355.22;7399224;19;20026;-58
2024/04/01 06:55:48;;;;;;;4.88;1.60;;;;;;;29.67;29.84;97353.06;7395628;19;20489;-58
2024/04/01 06:58:15;;;;;;;2.33;0.52;;;;;;;29.98;29.71;97358.38;7394086;19;20018;-58
2024/04/01 07:00:41;;;;;;;0.55;0.50;;;;;;;30.25;29.55;97354.19;7393287;19;20336;-58
2024/04/01 07:03:08;;;;;;;0.30;0.20;;;;;;;30.18;29.88;97357.53;7392793;19;20024;-58
2024/04/01 07:05:34;;;;;;;0.47;0.47;;;;;;;29.69;30.13;97361.72;7397400;19;20022;-58
2024/04/01 07:08:01;;;;;;;2.85;1.13;;;;;;;29.61;30.43;97367.22;7392741;19;20347;-59
2024/04/01 07:10:27;;;;;;;0.75;0.40;;;;;;;29.49;30.42;97361.09;7391148;19;20007;-58
2024/04/01 07:12:54;;;;;;;0.40;0.40;;;;;;;29.50;30.50;97356.81;7395810;19;20367;-58
2024/04/01 07:15:20;;;;;;;1.25;0.80;;;;;;;29.46;30.23;97355.94;7393335;19;20547;-59
2024/04/01 07:17:46;;;;;;;0.28;0.22;;;;;;;29.61;30.31;97364.34;7397213;19;20359;-58
2024/04/01 07:20:13;;;;;;;0.10;0.10;;;;;;;29.71;29.94;97361.81;7393492;19;20339;-59
2024/04/01 07:22:40;;;;;;;0.35;0.25;;;;;;;30.19;29.69;97356.84;7393403;19;20027;-58
2024/04/01 07:25:07;;;;;;;4.63;1.02;;;;;;;30.29;29.61;97367.91;7394271;19;20014;-58
2024/04/01 07:27:34;;;;;;;0.43;0.30;;;;;;;30.12;29.97;97365.97;7396215;19;20011;-58
2024/04/01 07:30:04;;;;;;;0.82;0.55;;;;;;;30.18;29.64;97364.00;7392328;19;20037;-58
2024/04/01 07:32:31;;;;;;;0.35;0.35;;;;;;;30.09;29.54;97373.03;7393604;19;20130;-58
2024/04/01 07:34:58;;;;;;;0.68;0.57;;;;;;;30.69;29.08;97363.34;7393623;19;20014;-58
2024/04/01 07:37:25;;;;;;;0.35;0.35;;;;;;;30.85;29.09;97368.81;7396862;19;20007;-59
2024/04/01 07:39:51;;;;;;;3.20;0.80;;;;;;;31.16;28.78;97369.00;7393172;19;20009;-58
2024/04/01 07:42:17;;;;;;;0.20;0.20;;;;;;;31.23;28.44;97373.47;7394552;19;20350;-58
2024/04/01 07:44:43;;;;;;;0.85;0.52;;;;;;;31.12;28.78;97374.63;7393127;19;20018;-58
2024/04/01 07:47:09;;;;;;;1.23;0.90;;;;;;;31.09;28.62;97375.25;7392620;19;20025;-59
2024/04/01 07:49:35;;;;;;;3.95;1.00;;;;;;;30.66;28.75;97381.97;7395254;19;20379;-58
2024/04/01 07:52:02;;;;;;;0.35;0.35;;;;;;;30.55;29.36;97383.06;7393318;19;20011;-59
2024/04/01 07:54:28;;;;;;;0.47;0.47;;;;;;;30.89;29.26;97369.69;7392953;19;20363;-59
2024/04/01 07:57:02;;;;;;;0.63;0.63;;;;;;;31.04;28.87;97373.66;7396952;19;20028;-58
2024/04/01 07:59:33;;;;;;;0.65;0.43;;;;;;;30.95;28.58;97372.72;7391801;19;20019;-58
2024/04/01 08:02:00;;;;;;;3.97;0.70;;;;;;;30.56;29.43;97384.53;7396875;19;20406;-58
2024/04/01 08:04:27;;;;;;;0.57;0.55;;;;;;;30.30;29.54;97380.88;7392806;19;20011;-58
2024/04/01 08:06:54;;;;;;;0.73;0.25;;;;;;;30.61;29.27;97386.13;7392224;19;20328;-59
2024/04/01 08:09:21;;;;;;;0.20;0.20;;;;;;;30.57;29.32;97391.75;7391336;19;20014;-59
2024/04/01 08:11:50;;;;;;;0.82;0.60;;;;;;;30.57;29.40;97391.75;7401653;19;20035;-59
2024/04/01 08:14:18;;;;;;;0.57;0.57;;;;;;;31.09;28.86;97393.25;7403131;19;20026;-59
2024/04/01 08:16:45;;;;;;;0.47;0.47;;;;;;;30.66;29.31;97394.19;7400254;19;20010;-58
2024/04/01 08:19:11;;;;;;;0.65;0.50;;;;;;;30.49;29.34;97388.66;7399923;19;20011;-59
2024/04/01 08:21:37;;;;;;;0.43;0.43;;;;;;;30.43;29.54;97394.94;7399242;19;20007;-58
2024/04/01 08:24:04;;;;;;;0.10;0.10;;;;;;;30.19;29.84;97399.22;7399354;19;20007;-58
2024/04/01 08:26:30;;;;;;;0.38;0.38;;;;;;;30.30;29.51;97395.25;7403463;19;20022;-58
2024/04/01 08:28:57;;;;;;;1.70;0.30;;;;;;;29.99;29.74;97400.03;7392478;19;20415;-58
2024/04/01 08:31:23;;;;;;;0.90;0.40;;;;;;;30.27;29.38;97399.44;7392838;19;20018;-58
2024/04/01 08:33:49;;;;;;;1.05;0.63;;;;;;;30.17;29.75;97402.03;7394147;19;20022;-58
2024/04/01 08:36:17;;;;;;;0.93;0.40;;;;;;;30.07;29.71;97404.56;7394891;19;20349;-58
2024/04/01 08:38:43;;;;;;;0.73;0.73;;;;;;;29.97;29.76;97402.84;7392692;19;20006;-58
2024/04/01 08:41:32;;;;;;;0.52;0.40;;;;;;;29.99;29.90;97408.63;7390035;19;20459;-58
2024/04/01 08:44:11;;;;;;;0.25;0.25;;;;;;;30.32;29.88;97406.81;7389676;19;20010;-58
2024/04/01 08:46:44;;;;;;;0.35;0.35;;;;;;;30.31;29.79;97413.94;7389073;19;20411;-59
2024/04/01 08:49:14;;;;;;;1.75;0.90;;;;;;;30.31;30.09;97417.56;7390294;19;20312;-58
2024/04/01 08:51:41;;;;;;;1.80;0.40;;;;;;;30.10;29.77;97408.97;7395632;19;20023;-58
2024/04/01 08:54:08;;;;;;;0.25;0.20;;;;;;;30.19;29.83;97420.03;7396115;19;20018;-59
2024/04/01 08:56:39;;;;;;;0.75;0.50;;;;;;;30.11;29.98;97416.16;7396175;19;20011;-59
2024/04/01 08:59:10;;;;;;;0.20;0.20;;;;;;;30.03;30.24;97419.53;7399063;19;20002;-59
2024/04/01 09:01:36;;;;;;;0.30;0.20;;;;;;;30.56;29.48;97424.75;7401849;19;20359;-59
2024/04/01 09:04:03;;;;;;;0.38;0.38;;;;;;;29.99;30.19;97423.00;7399608;19;20355;-59
2024/04/01 09:06:30;;;;;;;0.30;0.30;;;;;;;30.18;30.06;97429.31;7402673;19;20030;-60
2024/04/01 09:08:56;;;;;;;0.10;0.10;;;;;;;30.29;30.10;97419.59;7401427;19;20480;-59
2024/04/01 09:11:25;;;;;;;0.15;0.15;;;;;;;30.26;30.05;97418.06;7401168;19;20010;-59
2024/04/01 09:13:51;;;;;;;0.10;0.10;;;;;;;30.82;29.43;97421.94;7401925;19;20453;-57
2024/04/01 09:16:26;;;;;;;0.10;0.10;;;;;;;30.84;29.37;97425.56;7400544;19;20021;-58
2024/04/01 09:18:52;;;;;;;0.10;0.10;;;;;;;30.50;29.70;97433.94;7400821;19;20006;-58
2024/04/01 09:21:20;;;;;;;0.73;0.22;;;;;;;30.24;30.00;97435.25;7401140;19;20451;-60
2024/04/01 09:23:47;;;;;;;0.10;0.10;;;;;;;30.62;29.56;97439.31;7402022;19;20101;-60
2024/04/01 09:26:15;;;;;;;0.10;0.10;;;;;;;30.41;30.34;97443.72;7400887;19;20455;-60
2024/04/01 09:28:41;;;;;;;0.20;0.20;;;;;;;30.61;30.10;97434.97;7401573;19;20039;-60
2024/04/01 09:31:10;;;;;;;0.20;0.20;;;;;;;31.18;29.64;97432.31;7393919;19;20042;-60
2024/04/01 09:33:36;;;;;;;3.50;0.43;;;;;;;31.24;29.62;97441.09;7396725;19;20066;-59
2024/04/01 09:36:07;;;;;;;3.83;0.20;;;;;;;31.24;29.95;97443.97;7400329;19;20011;-60
2024/04/01 09:38:34;;;;;;;0.15;0.15;;;;;;;31.38;29.67;97441.47;7397155;19;20090;-60
2024/04/01 09:41:01;;;;;;;0.13;0.13;;;;;;;31.43;29.55;97457.47;7397110;19;20027;-60
2024/04/01 09:43:29;;;;;;;0.30;0.10;;;;;;;31.86;28.69;97453.53;7396675;19;20006;-61
2024/04/01 09:46:00;;;;;;;1.10;0.40;;;;;;;31.82;29.00;97450.53;7400589;19;20010;-61
2024/04/01 09:48:27;;;;;;;0.40;0.30;;;;;;;31.70;28.78;97452.41;7397703;19;20011;-61
2024/04/01 09:50:55;;;;;;;0.10;0.10;;;;;;;31.93;28.51;97451.53;7394723;19;20254;-60
2024/04/01 09:53:22;;;;;;;0.10;0.10;;;;;;;31.86;28.86;97464.31;7394949;19;20010;-60
2024/04/01 09:56:00;;;;;;;1.38;0.73;;;;;;;31.87;28.84;97460.03;7399763;19;20336;-60
2024/04/01 09:59:00;;;;;;;0.10;0.10;;;;;;;31.87;29.00;97462.91;7396776;19;20017;-60
2024/04/01 10:01:39;;;;;;;0.25;0.25;;;;;;;31.88;28.90;97473.00;7396421;19;20489;-60
2024/04/01 10:04:08;;;;;;;0.10;0.10;;;;;;;30.91;29.81;97476.13;7396735;19;20019;-60
2024/04/01 10:07:06;;;;;;;0.22;0.22;;;;;;;30.62;29.47;97479.53;7396226;19;20386;-60
2024/04/01 10:09:47;;;;;;;0.30;0.20;;;;;;;30.63;29.80;97476.00;7395635;19;20102;-60
2024/04/01 10:12:25;;;;;;;0.38;0.38;;;;;;;30.55;30.06;97480.75;7397301;19;20042;-60
2024/04/01 10:15:16;;;;;;;1.23;0.88;;;;;;;30.79;29.67;97480.75;7396415;19;20010;-60
2024/04/01 10:18:02;;;;;;;6.20;2.08;;;;;;;31.01;29.61;97473.53;7395168;19;20011;-60
2024/04/01 10:20:29;;;;;;;3.30;1.08;;;;;;;31.16;29.49;97478.28;7396406;19;20019;-60
2024/04/01 10:22:55;;;;;;;3.92;0.75;;;;;;;32.59;28.46;97479.09;7395840;19;20018;-60
2024/04/01 10:25:33;;;;;;;1.33;0.40;;;;;;;31.73;29.18;97479.84;7396863;19;20021;-60
2024/04/01 10:28:12;;;;;;;0.10;0.10;;;;;;;31.61;28.86;97474.47;7399094;19;20363;-60
2024/04/01 10:31:13;;;;;;;0.73;0.43;;;;;;;31.78;29.02;97484.25;7394102;19;20019;-59
2024/04/01 10:33:58;;;;;;;;;;;;;;;31.76;28.63;97484.22;7394434;19;20014;-60
2024/04/01 10:36:43;;;;;;;0.10;0.10;;;;;;;32.13;28.39;97492.38;7395663;19;19978;-59
2024/04/01 10:39:40;;;;;;;0.45;0.20;;;;;;;32.18;28.73;97482.41;7395878;19;20014;-59
2024/04/01 10:42:21;;;;;;;0.25;0.20;;;;;;;32.48;28.64;97488.19;7395953;19;20018;-59
2024/04/01 10:45:29;;;;;;;0.40;0.40;;;;;;;33.13;28.12;97488.19;7395462;19;20066;-59
2024/04/01 10:48:01;;;;;;;0.75;0.30;;;;;;;33.01;27.94;97487.91;7393988;19;20011;-59
2024/04/01 10:50:58;;;;;;;0.10;0.10;;;;;;;32.96;28.30;97494.28;7396575;19;20031;-59
2024/04/01 10:53:56;;;;;;;2.00;0.50;;;;;;;32.24;28.93;97496.22;7395399;19;20031;-59
2024/04/01 10:56:48;;;;;;;0.63;0.28;;;;;;;33.23;28.18;97497.03;7397126;19;20363;-59
2024/04/01 10:59:47;;;;;;;0.10;0.10;;;;;;;33.55;28.01;97494.78;7394936;19;20030;-59
2024/04/01 11:02:31;;;;;;;0.20;0.20;;;;;;;33.77;27.73;97500.25;7394719;19;20019;-59
2024/04/01 11:05:33;;;;;;;0.10;0.10;;;;;;;34.10;27.55;97502.28;7394236;19;20014;-59
2024/04/01 11:08:08;;;;;;;0.52;0.20;;;;;;;33.64;27.24;97504.34;7392904;19;20014;-59
2024/04/01 11:10:49;;;;;;;0.10;0.10;;;;;;;33.66;27.61;97501.47;7393033;19;20010;-59
2024/04/01 11:13:22;;;;;;;0.13;0.13;;;;;;;33.51;27.83;97502.63;7396904;19;20031;-59
2024/04/01 11:15:55;;;;;;;0.10;0.10;;;;;;;33.24;27.97;97497.78;7393421;19;20074;-59
2024/04/01 11:18:40;;;;;;;0.10;0.10;;;;;;;32.98;28.04;97503.72;7394639;19;20426;-59
2024/04/01 11:22:03;;;;;;;0.75;0.32;;;;;;;32.92;27.96;97504.28;7395120;19;20523;-59
2024/04/01 11:24:33;;;;;;;0.10;0.10;;;;;;;32.85;28.09;97502.69;7392504;19;20014;-59
2024/04/01 11:27:35;;;;;;;0.10;0.10;;;;;;;33.05;28.08;97504.59;7394714;19;20436;-59
2024/04/01 11:30:21;;;;;;;0.50;0.30;;;;;;;32.64;28.03;97508.69;7391409;19;20010;-59
2024/04/01 11:33:11;;;;;;;0.10;0.10;;;;;;;32.65;27.99;97515.94;7393341;19;20340;-59
2024/04/01 11:35:49;;;;;;;0.20;0.20;;;;;;;32.62;27.84;97518.06;7395976;19;20340;-59
2024/04/01 11:38:27;;;;;;;0.85;0.30;;;;;;;32.62;28.16;97509.41;7395763;19;20007;-59
2024/04/01 11:40:56;;;;;;;0.85;0.22;;;;;;;32.68;28.07;97520.34;7397960;19;20014;-59
2024/04/01 11:43:25;;;;;;;0.47;0.15;;;;;;;32.70;27.70;97524.00;7396894;19;20006;-59
2024/04/01 11:45:54;;;;;;;0.10;0.10;;;;;;;32.93;27.99;97528.09;7394637;19;20012;-59